Time;durP1;ratioP1;P1;durP2;ratioP2;P2;SDS_P1;SDS_P2;PMS_P1;PMS_P2;Temp;Humidity;BMP_temperature;BMP_pressure;BME280_temperature;BME280_humidity;BME280_pressure;Samples;Min_cycle;Max_cycle;Signal;HPM_P1;HPM_P2
2022/06/19 00:00:19;;;;;;;12.85;5.57;;;21.70;99.90;;;;;;5071593;28;20024;-84
2022/06/19 00:02:46;;;;;;;15.75;6.47;;;21.60;99.90;;;;;;5080789;28;20021;-85
2022/06/19 00:05:30;;;;;;;9.80;5.05;;;21.60;99.90;;;;;;5067832;28;20086;-84
2022/06/19 00:07:56;;;;;;;16.92;5.55;;;21.60;99.90;;;;;;5071172;28;20030;-84
2022/06/19 00:10:23;;;;;;;16.00;5.22;;;21.60;99.90;;;;;;5073300;28;20025;-85
2022/06/19 00:13:00;;;;;;;14.13;5.40;;;21.50;99.90;;;;;;5073302;28;20040;-84
2022/06/19 00:15:26;;;;;;;13.60;5.43;;;21.50;99.90;;;;;;5073558;28;20058;-84
2022/06/19 00:17:51;;;;;;;18.10;5.50;;;21.40;99.90;;;;;;5072558;28;20075;-85
2022/06/19 00:20:25;;;;;;;10.48;4.82;;;21.40;99.90;;;;;;5072481;28;20020;-84
2022/06/19 00:22:51;;;;;;;12.07;4.93;;;21.30;99.90;;;;;;5072162;28;20033;-85
2022/06/19 00:25:16;;;;;;;11.45;5.13;;;21.30;99.90;;;;;;5075653;28;20095;-85
2022/06/19 00:27:44;;;;;;;14.45;4.75;;;21.30;99.90;;;;;;5073446;28;20032;-85
2022/06/19 00:30:12;;;;;;;13.70;5.20;;;21.30;99.90;;;;;;5082942;28;20107;-85
2022/06/19 00:32:38;;;;;;;14.45;5.35;;;21.20;99.90;;;;;;5084388;28;20021;-85
2022/06/19 00:35:13;;;;;;;16.42;5.63;;;21.20;99.90;;;;;;5078610;28;20028;-84
2022/06/19 00:37:39;;;;;;;;;;;21.10;99.90;;;;;;5062372;28;20415;-84
2022/06/19 00:40:06;;;;;;;;;;;21.10;99.90;;;;;;5054667;28;19909;-84
2022/06/19 00:42:39;;;;;;;11.73;5.13;;;21.00;99.90;;;;;;5066764;28;19909;-85
2022/06/19 00:45:06;;;;;;;11.80;5.03;;;21.00;99.90;;;;;;5072882;28;20070;-84
2022/06/19 00:47:38;;;;;;;10.32;5.40;;;21.00;99.90;;;;;;5069644;28;20028;-85
2022/06/19 00:50:26;;;;;;;11.43;4.47;;;21.00;99.90;;;;;;5064097;28;20020;-84
2022/06/19 00:52:51;;;;;;;13.65;4.97;;;21.00;99.90;;;;;;5065396;28;20021;-85
2022/06/19 00:55:22;;;;;;;15.68;5.93;;;21.00;99.90;;;;;;5073924;28;20074;-85
2022/06/19 00:57:53;;;;;;;7.40;4.15;;;21.00;99.90;;;;;;5072620;28;20016;-85
2022/06/19 01:00:26;;;;;;;15.15;4.82;;;20.90;99.90;;;;;;5072896;28;20408;-85
2022/06/19 01:03:20;;;;;;;10.70;5.55;;;21.00;99.90;;;;;;5068362;28;20100;-85
2022/06/19 01:06:13;;;;;;;17.20;6.05;;;20.90;99.90;;;;;;5067090;28;20049;-85
2022/06/19 01:08:39;;;;;;;18.38;5.20;;;20.90;99.90;;;;;;5069342;28;20017;-85
2022/06/19 01:11:17;;;;;;;11.95;5.45;;;20.90;99.90;;;;;;5072713;28;20034;-85
2022/06/19 01:13:43;;;;;;;12.73;5.10;;;20.90;99.90;;;;;;5071664;28;20032;-85
2022/06/19 01:16:09;;;;;;;13.80;5.13;;;20.90;99.90;;;;;;5072220;28;20032;-85
2022/06/19 01:18:53;;;;;;;12.00;4.75;;;20.80;99.90;;;;;;5071423;28;20024;-85
2022/06/19 01:21:22;;;;;;;13.48;5.28;;;20.80;99.90;;;;;;5080017;28;20547;-85
2022/06/19 01:23:52;;;;;;;14.82;5.93;;;20.80;99.90;;;;;;5072183;28;20029;-85
2022/06/19 01:26:23;;;;;;;11.40;4.95;;;20.80;99.90;;;;;;5072641;28;20025;-85
2022/06/19 01:28:56;;;;;;;26.25;6.57;;;20.80;99.90;;;;;;5066737;28;20035;-85
2022/06/19 01:32:13;;;;;;;18.25;5.65;;;20.80;99.90;;;;;;5064809;28;20449;-85
2022/06/19 01:34:41;;;;;;;15.45;6.10;;;20.90;99.90;;;;;;5003893;28;20026;-85
2022/06/19 01:37:14;;;;;;;11.80;5.65;;;20.80;99.90;;;;;;5064685;28;20056;-84
2022/06/19 01:39:47;;;;;;;9.00;4.65;;;20.80;99.90;;;;;;5075058;28;20489;-85
2022/06/19 01:42:13;;;;;;;12.70;5.28;;;20.80;99.90;;;;;;5051164;28;20116;-85
2022/06/19 01:44:41;;;;;;;9.32;4.97;;;20.70;99.90;;;;;;5074600;28;20035;-85
2022/06/19 01:47:20;;;;;;;9.27;4.85;;;20.70;99.90;;;;;;5072486;28;20468;-84
2022/06/19 01:49:49;;;;;;;11.02;4.95;;;20.70;99.90;;;;;;5077233;28;20031;-84
2022/06/19 01:52:18;;;;;;;15.75;5.85;;;20.70;99.90;;;;;;5071964;28;20070;-85
2022/06/19 01:54:50;;;;;;;8.82;5.07;;;20.60;99.90;;;;;;5074196;28;20533;-84
2022/06/19 01:57:16;;;;;;;14.77;5.07;;;20.60;99.90;;;;;;5076090;28;20036;-84
2022/06/19 01:59:58;;;;;;;7.57;4.85;;;20.70;99.90;;;;;;5076047;28;20032;-84
2022/06/19 02:02:24;;;;;;;14.15;5.90;;;20.70;99.90;;;;;;5078575;28;20020;-85
2022/06/19 02:05:03;;;;;;;19.48;7.05;;;20.70;99.90;;;;;;5071678;28;20058;-84
2022/06/19 02:07:31;;;;;;;17.15;6.45;;;20.60;99.90;;;;;;5075316;28;20476;-84
2022/06/19 02:09:58;;;;;;;13.73;6.65;;;20.60;99.90;;;;;;5082125;28;20500;-84
2022/06/19 02:12:46;;;;;;;19.25;7.05;;;20.50;99.90;;;;;;5075988;28;20031;-85
2022/06/19 02:15:13;;;;;;;17.33;5.93;;;20.50;99.90;;;;;;5064279;28;20074;-84
2022/06/19 02:17:49;;;;;;;23.48;7.13;;;20.40;99.90;;;;;;5077273;28;20070;-84
2022/06/19 02:20:16;;;;;;;22.52;5.45;;;20.40;99.90;;;;;;5081627;28;20016;-85
2022/06/19 02:22:42;;;;;;;21.25;5.80;;;20.40;99.90;;;;;;5061715;28;20013;-85
2022/06/19 02:28:31;;;;;;;19.92;6.43;;;20.70;99.90;;;;;;5063539;28;20121;-84
2022/06/19 02:31:16;;;;;;;26.77;6.68;;;20.90;99.90;;;;;;5070194;28;20111;-85
2022/06/19 02:33:46;;;;;;;19.45;6.00;;;20.90;99.90;;;;;;5090271;28;20020;-85
2022/06/19 02:36:33;;;;;;;17.23;6.03;;;20.80;99.90;;;;;;5074757;28;20043;-85
2022/06/19 02:39:13;;;;;;;16.52;6.43;;;20.80;99.90;;;;;;5074427;28;20074;-85
2022/06/19 02:41:45;;;;;;;21.95;6.35;;;20.80;99.90;;;;;;5083605;28;20036;-85
2022/06/19 02:44:13;;;;;;;21.15;6.63;;;20.70;99.90;;;;;;5092616;28;20028;-85
2022/06/19 02:46:39;;;;;;;13.77;5.78;;;20.70;99.90;;;;;;5056177;28;20485;-84
2022/06/19 02:49:04;;;;;;;18.70;5.28;;;20.60;99.90;;;;;;5062529;28;20100;-84
2022/06/19 02:51:53;;;;;;;15.77;6.40;;;20.50;99.90;;;;;;5073632;28;20086;-84
2022/06/19 02:54:18;;;;;;;14.85;5.90;;;20.40;99.90;;;;;;5074576;28;20029;-84
2022/06/19 02:56:44;;;;;;;24.73;7.30;;;20.40;99.90;;;;;;5075418;28;20043;-84
2022/06/19 02:59:42;;;;;;;20.52;6.72;;;20.30;99.90;;;;;;5066737;28;20085;-84
2022/06/19 03:02:08;;;;;;;12.73;5.60;;;20.20;99.90;;;;;;5072152;28;20036;-83
2022/06/19 03:04:38;;;;;;;21.70;7.55;;;20.20;99.90;;;;;;5075075;28;20043;-84
2022/06/19 03:07:04;;;;;;;15.93;6.07;;;20.10;99.90;;;;;;5073470;28;20040;-84
2022/06/19 03:09:34;;;;;;;19.20;5.82;;;20.10;99.90;;;;;;5070471;28;20043;-84
2022/06/19 03:11:59;;;;;;;13.52;5.35;;;20.00;99.90;;;;;;5069282;28;20028;-84
2022/06/19 03:14:25;;;;;;;14.77;5.80;;;20.00;99.90;;;;;;5064901;28;20033;-84
2022/06/19 03:16:53;;;;;;;14.68;6.05;;;20.00;99.90;;;;;;5076014;28;20035;-84
2022/06/19 03:19:19;;;;;;;24.60;6.35;;;20.00;99.90;;;;;;5082543;28;20111;-84
2022/06/19 03:21:44;;;;;;;21.35;6.07;;;20.00;99.90;;;;;;5074170;28;20598;-84
2022/06/19 03:24:21;;;;;;;18.55;5.57;;;20.00;99.90;;;;;;5082580;28;20043;-84
2022/06/19 03:26:46;;;;;;;30.92;7.05;;;20.00;99.90;;;;;;5089274;28;20036;-84
2022/06/19 03:29:12;;;;;;;20.17;5.53;;;20.10;99.90;;;;;;5074543;28;20372;-84
2022/06/19 03:32:13;;;;;;;22.48;5.07;;;20.10;99.90;;;;;;5074151;28;20031;-84
2022/06/19 03:34:42;;;;;;;19.63;6.25;;;20.10;99.90;;;;;;5073116;28;20036;-84
2022/06/19 03:37:07;;;;;;;22.52;4.47;;;20.10;99.90;;;;;;5073961;28;20024;-84
2022/06/19 03:39:55;;;;;;;20.90;4.45;;;20.20;99.90;;;;;;5073507;28;20021;-85
2022/06/19 03:42:20;;;;;;;28.38;4.82;;;20.30;99.90;;;;;;5062577;28;20056;-85
2022/06/19 03:44:46;;;;;;;26.30;4.50;;;20.70;99.90;;;;;;5072406;28;20070;-85
2022/06/19 03:47:27;;;;;;;22.80;4.68;;;21.00;99.90;;;;;;5064379;28;20032;-84
2022/06/19 03:49:53;;;;;;;28.42;4.82;;;21.50;99.90;;;;;;5078272;28;20033;-85
2022/06/19 03:52:19;;;;;;;23.23;4.68;;;22.00;99.90;;;;;;5072582;28;20031;-84
2022/06/19 03:54:45;;;;;;;29.83;5.28;;;22.40;99.90;;;;;;5073595;28;20388;-84
2022/06/19 03:57:14;;;;;;;28.38;4.63;;;22.70;99.90;;;;;;5069827;28;20040;-84
2022/06/19 03:59:40;;;;;;;35.63;6.65;;;23.00;99.90;;;;;;5074490;28;20024;-85
2022/06/19 04:02:15;;;;;;;28.73;4.78;;;23.20;99.90;;;;;;5094335;28;20054;-84
2022/06/19 04:04:41;;;;;;;30.95;6.38;;;23.30;99.90;;;;;;5087244;28;20029;-85
2022/06/19 04:07:10;;;;;;;34.80;6.05;;;23.50;99.90;;;;;;5081795;28;20128;-84
2022/06/19 04:09:43;;;;;;;29.35;5.07;;;23.70;99.40;;;;;;5073387;28;20029;-85
2022/06/19 04:12:16;;;;;;;39.17;6.78;;;23.90;98.00;;;;;;5074085;28;20063;-84
2022/06/19 04:14:41;;;;;;;37.10;5.45;;;24.00;96.20;;;;;;5059684;28;20044;-84
2022/06/19 04:17:08;;;;;;;24.65;4.97;;;24.20;95.20;;;;;;5071727;28;20028;-84
2022/06/19 04:20:07;;;;;;;27.52;4.15;;;24.30;93.70;;;;;;5073693;28;20484;-84
2022/06/19 04:22:34;;;;;;;25.70;4.80;;;24.50;91.90;;;;;;5065888;28;20036;-84
2022/06/19 04:25:07;;;;;;;19.83;3.78;;;24.60;90.50;;;;;;5072365;28;20029;-85
2022/06/19 04:27:33;;;;;;;30.80;4.63;;;24.60;91.30;;;;;;5073723;28;20362;-85
2022/06/19 04:29:59;;;;;;;31.85;4.38;;;24.70;89.50;;;;;;5073753;28;20377;-84
2022/06/19 04:32:24;;;;;;;27.02;5.10;;;24.70;89.00;;;;;;5089784;28;20024;-84
2022/06/19 04:34:50;;;;;;;35.08;5.13;;;24.80;84.80;;;;;;5093766;28;20380;-84
2022/06/19 04:37:15;;;;;;;36.28;4.75;;;24.90;84.40;;;;;;5087979;28;20376;-85
2022/06/19 04:39:53;;;;;;;24.80;4.82;;;25.00;82.00;;;;;;5073202;28;20051;-85
2022/06/19 04:42:19;;;;;;;33.20;4.78;;;25.00;84.40;;;;;;5073079;28;20024;-84
2022/06/19 04:44:48;;;;;;;23.08;5.10;;;25.00;83.50;;;;;;5068396;28;20381;-85
2022/06/19 04:47:13;;;;;;;23.17;4.45;;;25.10;84.00;;;;;;5071668;28;20077;-85
2022/06/19 04:49:42;;;;;;;37.25;5.80;;;25.10;84.00;;;;;;5073119;28;20524;-86
2022/06/19 04:52:07;;;;;;;26.42;5.47;;;25.00;85.10;;;;;;5067281;28;20025;-85
2022/06/19 04:54:45;;;;;;;30.88;5.10;;;25.10;79.70;;;;;;5069273;28;20409;-84
2022/06/19 04:57:11;;;;;;;27.55;4.97;;;25.10;81.70;;;;;;5071385;28;20465;-84
2022/06/19 04:59:38;;;;;;;30.75;4.50;;;25.20;78.20;;;;;;5064797;28;20028;-84
2022/06/19 05:02:04;;;;;;;30.80;6.05;;;25.30;76.70;;;;;;5052021;28;20021;-85
2022/06/19 05:04:52;;;;;;;35.65;5.05;;;25.40;76.00;;;;;;5053123;28;20120;-84
2022/06/19 05:07:17;;;;;;;27.48;4.95;;;25.50;75.40;;;;;;5052732;28;20041;-84
2022/06/19 05:09:43;;;;;;;25.10;4.28;;;25.50;75.70;;;;;;5051645;28;20032;-84
2022/06/19 05:12:18;;;;;;;29.10;4.22;;;25.50;74.60;;;;;;5052818;28;20024;-85
2022/06/19 05:14:43;;;;;;;28.23;5.50;;;25.60;72.60;;;;;;5071515;28;20495;-85
2022/06/19 05:17:12;;;;;;;46.97;5.93;;;25.60;72.20;;;;;;5071758;28;20038;-84
2022/06/19 05:19:41;;;;;;;28.95;4.53;;;25.70;71.20;;;;;;5072976;28;20574;-86
2022/06/19 05:22:13;;;;;;;23.95;4.63;;;25.80;71.60;;;;;;5072293;28;20051;-86
2022/06/19 05:24:38;;;;;;;27.55;5.22;;;25.90;70.10;;;;;;5068478;28;20064;-84
2022/06/19 05:27:06;;;;;;;27.17;4.13;;;25.90;68.90;;;;;;5065876;28;20110;-86
2022/06/19 05:29:32;;;;;;;27.23;4.32;;;26.00;68.10;;;;;;5072147;28;20032;-85
2022/06/19 05:31:58;;;;;;;21.80;4.03;;;26.00;69.10;;;;;;5071335;28;20112;-85
2022/06/19 05:34:24;;;;;;;25.20;4.68;;;26.10;68.30;;;;;;5060071;28;20494;-85
2022/06/19 05:36:49;;;;;;;29.98;4.50;;;26.00;69.20;;;;;;5052716;28;20028;-84
2022/06/19 05:39:16;;;;;;;23.80;5.32;;;26.10;68.60;;;;;;5051084;28;20041;-84
2022/06/19 05:41:42;;;;;;;30.90;5.68;;;26.20;66.80;;;;;;5057813;28;20108;-83
2022/06/19 05:44:10;;;;;;;23.48;4.90;;;26.20;67.20;;;;;;5071034;28;20112;-83
2022/06/19 05:46:35;;;;;;;30.38;4.50;;;26.30;65.90;;;;;;5071593;28;20039;-83
2022/06/19 05:49:08;;;;;;;21.50;5.40;;;26.30;66.20;;;;;;5071567;28;20029;-84
2022/06/19 05:51:34;;;;;;;26.58;5.07;;;26.30;65.30;;;;;;5069102;28;20024;-83
2022/06/19 05:54:00;;;;;;;38.50;5.00;;;26.30;66.10;;;;;;5078390;28;20078;-83
2022/06/19 05:56:27;;;;;;;34.45;4.40;;;26.40;65.00;;;;;;5071595;28;20486;-83
2022/06/19 05:58:53;;;;;;;33.03;5.03;;;26.40;64.70;;;;;;5066726;28;20055;-83
2022/06/19 06:01:20;;;;;;;35.58;5.07;;;26.40;63.60;;;;;;5068910;28;20111;-82
2022/06/19 06:03:47;;;;;;;30.55;5.07;;;26.40;64.10;;;;;;5069081;28;20025;-83
2022/06/19 06:06:26;;;;;;;28.75;5.65;;;26.50;62.10;;;;;;5068106;28;20119;-81
2022/06/19 06:08:52;;;;;;;33.33;4.85;;;26.60;60.40;;;;;;5070598;28;20020;-83
2022/06/19 06:11:19;;;;;;;23.80;3.65;;;26.60;60.30;;;;;;5069954;28;20033;-83
2022/06/19 06:13:44;;;;;;;24.10;4.00;;;26.60;61.10;;;;;;5068190;28;20449;-83
2022/06/19 06:16:12;;;;;;;31.30;4.43;;;26.60;60.70;;;;;;5069954;28;20063;-83
2022/06/19 06:18:38;;;;;;;29.55;4.60;;;26.70;59.50;;;;;;5069627;28;20024;-84
2022/06/19 06:21:10;;;;;;;28.98;5.20;;;26.80;59.00;;;;;;5058430;28;20033;-83
2022/06/19 06:23:35;;;;;;;37.42;4.47;;;26.80;58.70;;;;;;5068896;28;20038;-83
2022/06/19 06:26:18;;;;;;;29.38;4.25;;;26.80;58.20;;;;;;5070788;28;20477;-82
2022/06/19 06:28:47;;;;;;;28.23;5.35;;;26.90;58.50;;;;;;5066527;28;20024;-83
2022/06/19 06:31:13;;;;;;;24.90;5.50;;;26.90;58.10;;;;;;5069272;28;20392;-83
2022/06/19 06:33:40;;;;;;;26.67;4.20;;;27.00;58.00;;;;;;5068636;28;20039;-83
2022/06/19 06:36:06;;;;;;;24.45;5.10;;;27.00;58.30;;;;;;5068606;28;20037;-83
2022/06/19 06:38:32;;;;;;;23.77;3.78;;;27.10;56.60;;;;;;5068800;28;20078;-83
2022/06/19 06:40:57;;;;;;;23.05;4.43;;;27.10;56.00;;;;;;5057781;28;20036;-83
2022/06/19 06:43:24;;;;;;;26.20;4.88;;;27.20;56.20;;;;;;5072659;28;20427;-84
2022/06/19 06:45:50;;;;;;;18.30;3.55;;;27.20;55.70;;;;;;5075046;28;20528;-83
2022/06/19 06:48:17;;;;;;;28.75;4.80;;;27.20;55.10;;;;;;5070881;28;20024;-83
2022/06/19 06:50:42;;;;;;;26.67;4.45;;;27.20;55.80;;;;;;5068768;28;20109;-84
2022/06/19 06:53:09;;;;;;;27.90;3.72;;;27.30;56.10;;;;;;5074310;28;20508;-84
2022/06/19 06:55:43;;;;;;;28.52;3.50;;;27.30;56.30;;;;;;5067281;28;20404;-83
2022/06/19 06:58:09;;;;;;;22.13;4.22;;;27.40;55.20;;;;;;5072831;28;20029;-85
2022/06/19 07:00:36;;;;;;;30.90;4.53;;;27.50;54.30;;;;;;5071400;28;20020;-82
2022/06/19 07:03:02;;;;;;;24.15;4.55;;;27.50;54.30;;;;;;5070462;28;20032;-82
2022/06/19 07:05:28;;;;;;;27.67;3.90;;;27.50;53.40;;;;;;5071604;28;20127;-83
2022/06/19 07:07:54;;;;;;;24.38;4.72;;;27.60;54.20;;;;;;5070856;28;20060;-84
2022/06/19 07:10:20;;;;;;;20.83;4.63;;;27.60;54.10;;;;;;5068897;28;20114;-84
2022/06/19 07:12:46;;;;;;;27.08;3.63;;;27.60;54.10;;;;;;5067177;28;20027;-83
2022/06/19 07:15:12;;;;;;;23.30;4.35;;;27.70;53.90;;;;;;5067809;28;20029;-84
2022/06/19 07:17:38;;;;;;;17.08;3.88;;;27.80;53.30;;;;;;5071589;28;20026;-83
2022/06/19 07:20:05;;;;;;;29.23;4.63;;;27.90;52.20;;;;;;5072589;28;20036;-83
2022/06/19 07:22:31;;;;;;;32.80;4.85;;;28.00;51.50;;;;;;5067706;28;20056;-83
2022/06/19 07:24:57;;;;;;;27.25;4.10;;;28.00;51.50;;;;;;5060535;28;20574;-83
2022/06/19 07:27:24;;;;;;;25.10;4.13;;;28.10;51.20;;;;;;5070113;28;20029;-83
2022/06/19 07:29:50;;;;;;;31.90;4.93;;;28.10;52.00;;;;;;5074408;28;20052;-84
2022/06/19 07:32:16;;;;;;;35.78;5.13;;;28.20;51.40;;;;;;5072820;28;20473;-85
2022/06/19 07:34:42;;;;;;;40.15;4.30;;;28.20;51.50;;;;;;5066899;28;20023;-83
2022/06/19 07:37:13;;;;;;;24.02;4.57;;;28.30;51.10;;;;;;5070140;28;20027;-84
2022/06/19 07:39:39;;;;;;;31.00;4.95;;;28.40;51.20;;;;;;5061569;28;20366;-84
2022/06/19 07:42:08;;;;;;;18.40;4.35;;;28.50;50.00;;;;;;5071349;28;20039;-85
2022/06/19 07:44:34;;;;;;;35.47;4.68;;;28.50;51.10;;;;;;5068793;28;20086;-84
2022/06/19 07:52:29;;;;;;;24.92;3.88;;;28.70;49.70;;;;;;5064501;28;20031;-84
2022/06/19 07:54:54;;;;;;;20.90;4.68;;;28.70;49.70;;;;;;5066697;28;20028;-84
2022/06/19 07:57:20;;;;;;;23.80;4.32;;;28.80;49.00;;;;;;5072818;28;20115;-84
2022/06/19 07:59:45;;;;;;;26.08;4.70;;;28.80;48.90;;;;;;5066306;28;20017;-84
2022/06/19 08:02:11;;;;;;;35.63;4.47;;;28.90;48.50;;;;;;5065814;28;20016;-85
2022/06/19 08:04:37;;;;;;;19.90;3.85;;;28.90;48.50;;;;;;5064566;28;20060;-84
2022/06/19 08:07:02;;;;;;;23.98;5.47;;;28.90;48.50;;;;;;5072836;28;20076;-84
2022/06/19 08:09:28;;;;;;;30.08;4.40;;;29.00;48.50;;;;;;5071128;28;20032;-83
2022/06/19 08:11:54;;;;;;;24.85;7.10;;;29.10;49.00;;;;;;5072255;28;20423;-84
2022/06/19 08:14:19;;;;;;;27.80;4.55;;;29.20;48.50;;;;;;5068979;28;20376;-84
2022/06/19 08:16:45;;;;;;;27.85;5.20;;;29.30;48.70;;;;;;5073024;28;20107;-84
2022/06/19 08:19:10;;;;;;;19.33;4.53;;;29.40;49.20;;;;;;5056133;28;20028;-83
2022/06/19 08:21:37;;;;;;;33.40;5.35;;;29.50;48.20;;;;;;5068601;28;20024;-83
2022/06/19 08:24:03;;;;;;;38.33;5.00;;;29.50;48.20;;;;;;5063779;28;20427;-83
2022/06/19 08:26:29;;;;;;;25.73;5.13;;;29.60;47.90;;;;;;5063257;28;20029;-83
2022/06/19 08:31:21;;;;;;;19.52;4.45;;;29.80;48.40;;;;;;5072570;28;20070;-84
2022/06/19 08:33:46;;;;;;;30.23;5.00;;;29.90;47.60;;;;;;5067472;28;20032;-84
2022/06/19 08:36:12;;;;;;;27.98;4.93;;;29.90;47.20;;;;;;5061676;28;20028;-83
2022/06/19 08:38:44;;;;;;;30.70;5.50;;;30.00;48.20;;;;;;5066088;28;20507;-84
2022/06/19 08:41:47;;;;;;;22.15;4.78;;;30.00;46.90;;;;;;5056358;28;20033;-84
2022/06/19 08:44:32;;;;;;;24.38;5.88;;;30.10;47.80;;;;;;5066890;28;20028;-84
2022/06/19 08:47:17;;;;;;;36.95;5.30;;;30.10;47.80;;;;;;5067417;28;20048;-83
2022/06/19 08:50:34;;;;;;;29.63;4.63;;;30.20;46.70;;;;;;5072928;28;20085;-84
2022/06/19 08:53:18;;;;;;;26.70;5.47;;;30.20;47.50;;;;;;4972162;28;20110;-84
2022/06/19 08:56:21;;;;;;;31.35;5.13;;;30.30;47.00;;;;;;4970874;28;20058;-83
2022/06/19 08:59:09;;;;;;;31.25;5.35;;;30.50;46.70;;;;;;5059909;28;20636;-83
2022/06/19 09:02:01;;;;;;;21.42;4.65;;;30.70;46.10;;;;;;5068971;28;20091;-83
2022/06/19 09:07:56;;;;;;;33.35;5.80;;;30.70;46.30;;;;;;5065339;28;20048;-83
2022/06/19 09:10:35;;;;;;;29.45;4.95;;;30.80;45.90;;;;;;5039385;28;20083;-84
2022/06/19 09:13:01;;;;;;;18.25;4.53;;;30.80;46.70;;;;;;5063608;28;20028;-83
2022/06/19 09:15:40;;;;;;;21.15;5.07;;;30.80;46.00;;;;;;5061124;28;20029;-84
2022/06/19 09:18:21;;;;;;;37.03;6.57;;;30.80;46.90;;;;;;5066651;28;20053;-83
2022/06/19 09:21:15;;;;;;;27.73;5.15;;;31.00;45.00;;;;;;5068619;28;20025;-84
2022/06/19 09:24:09;;;;;;;36.08;5.78;;;31.00;45.80;;;;;;5064857;28;20527;-83
2022/06/19 09:26:44;;;;;;;21.50;4.45;;;30.90;45.40;;;;;;5059486;28;20560;-84
2022/06/19 09:29:21;;;;;;;29.50;5.88;;;30.90;46.00;;;;;;5062536;28;20033;-84
2022/06/19 09:32:05;;;;;;;30.77;5.13;;;30.80;46.40;;;;;;5065112;28;20496;-84
2022/06/19 09:34:35;;;;;;;24.55;5.63;;;30.80;46.40;;;;;;5057296;28;20082;-83
2022/06/19 09:37:23;;;;;;;23.73;5.95;;;31.00;46.30;;;;;;5052994;28;20108;-83
2022/06/19 09:40:18;;;;;;;39.83;6.07;;;31.10;46.00;;;;;;5060907;28;20511;-83
2022/06/19 09:42:49;;;;;;;20.10;4.25;;;31.20;46.20;;;;;;5056915;28;20037;-84
2022/06/19 09:45:36;;;;;;;30.30;5.97;;;31.20;46.60;;;;;;5070866;28;20098;-83
2022/06/19 09:48:31;;;;;;;26.23;6.25;;;31.30;45.80;;;;;;5066566;28;20025;-84
2022/06/19 09:51:23;;;;;;;22.80;4.97;;;31.30;46.30;;;;;;5057092;28;20029;-82
2022/06/19 09:54:00;;;;;;;31.58;5.82;;;31.30;46.40;;;;;;5050741;28;20381;-83
2022/06/19 09:57:01;;;;;;;28.67;5.20;;;31.40;46.10;;;;;;5070323;28;20481;-83
2022/06/19 09:59:53;;;;;;;28.08;6.10;;;31.40;46.40;;;;;;5042949;28;20113;-82
2022/06/19 10:03:01;;;;;;;22.02;5.00;;;31.50;46.70;;;;;;5071420;28;20029;-85
2022/06/19 10:06:07;;;;;;;26.52;6.88;;;31.70;45.70;;;;;;5071598;28;20024;-86
2022/06/19 10:08:53;;;;;;;20.35;5.72;;;31.70;47.20;;;;;;5070921;28;20369;-85
2022/06/19 10:11:28;;;;;;;15.40;4.47;;;31.80;47.80;;;;;;5071667;28;20029;-85
2022/06/19 10:14:00;;;;;;;33.03;5.97;;;31.80;51.50;;;;;;5071619;28;20555;-84
2022/06/19 10:16:44;;;;;;;18.50;4.88;;;31.80;49.40;;;;;;5073435;28;20384;-85
2022/06/19 10:19:14;;;;;;;19.08;4.72;;;31.70;52.10;;;;;;5059280;28;20033;-84
2022/06/19 10:22:13;;;;;;;22.70;4.72;;;31.50;52.00;;;;;;5069330;28;20056;-85
2022/06/19 10:25:07;;;;;;;26.63;5.10;;;31.50;52.40;;;;;;5080143;28;20024;-85
2022/06/19 10:27:57;;;;;;;21.73;4.18;;;31.40;53.40;;;;;;5082680;28;20480;-84
2022/06/19 10:30:35;;;;;;;14.77;3.65;;;31.40;54.60;;;;;;5078807;28;20025;-85
2022/06/19 10:33:24;;;;;;;10.82;3.65;;;31.10;55.80;;;;;;5075391;28;20016;-85
2022/06/19 10:36:10;;;;;;;20.98;4.07;;;31.00;57.40;;;;;;5074809;28;20119;-85
2022/06/19 10:38:56;;;;;;;10.55;2.97;;;30.70;59.10;;;;;;5074878;28;20431;-85
2022/06/19 10:42:04;;;;;;;10.73;2.90;;;30.30;60.40;;;;;;5074983;28;20033;-85
2022/06/19 10:45:04;;;;;;;10.18;3.58;;;29.90;64.60;;;;;;5066009;28;20036;-84
2022/06/19 10:47:41;;;;;;;9.13;2.80;;;29.60;67.50;;;;;;5054938;28;20040;-84
2022/06/19 10:50:44;;;;;;;13.25;2.85;;;29.30;74.60;;;;;;5073912;28;20047;-84
2022/06/19 10:53:22;;;;;;;10.70;2.58;;;29.10;80.70;;;;;;5037487;28;20045;-85
2022/06/19 10:55:53;;;;;;;15.15;2.90;;;28.80;87.50;;;;;;5074203;28;20051;-85
2022/06/19 10:58:22;;;;;;;8.73;3.08;;;28.70;89.60;;;;;;5071613;28;20445;-86
2022/06/19 11:00:54;;;;;;;16.63;2.70;;;28.60;93.00;;;;;;5068417;28;20035;-85
2022/06/19 11:06:54;;;;;;;13.25;3.15;;;28.60;93.40;;;;;;5074038;28;20055;-86
2022/06/19 11:09:30;;;;;;;8.70;2.30;;;28.60;95.90;;;;;;5059229;28;20396;-85
2022/06/19 11:12:13;;;;;;;9.68;2.88;;;28.60;94.90;;;;;;5056922;28;20029;-86
2022/06/19 11:14:50;;;;;;;14.40;3.42;;;28.50;95.00;;;;;;5073208;28;20155;-84
2022/06/19 11:17:58;;;;;;;12.70;2.45;;;28.40;95.30;;;;;;5073672;28;20028;-86
2022/06/19 11:20:28;;;;;;;18.20;3.55;;;28.30;95.10;;;;;;5061880;28;20477;-84
2022/06/19 11:23:29;;;;;;;17.27;2.85;;;28.20;96.00;;;;;;5067315;28;20028;-84
2022/06/19 11:25:59;;;;;;;12.52;2.90;;;28.00;96.10;;;;;;5068557;28;20025;-85
2022/06/19 11:28:40;;;;;;;11.00;2.72;;;27.80;98.00;;;;;;5067612;28;20017;-84
2022/06/19 11:31:14;;;;;;;16.70;3.50;;;27.80;98.30;;;;;;5073289;28;20357;-83
2022/06/19 11:33:41;;;;;;;11.18;3.47;;;27.80;97.80;;;;;;5073605;28;20056;-83
2022/06/19 11:36:25;;;;;;;17.00;3.00;;;27.70;97.00;;;;;;5067207;28;20025;-83
2022/06/19 11:38:54;;;;;;;12.40;2.72;;;27.50;98.40;;;;;;5063646;28;20064;-84
2022/06/19 11:41:34;;;;;;;18.23;3.67;;;27.40;97.50;;;;;;5059047;28;20017;-77
2022/06/19 11:44:04;;;;;;;18.33;3.78;;;27.40;98.70;;;;;;5061622;28;20033;-79
2022/06/19 11:46:31;;;;;;;11.10;3.35;;;27.30;97.70;;;;;;5069799;28;20039;-77
2022/06/19 11:49:29;;;;;;;11.05;3.22;;;27.20;98.30;;;;;;5073465;28;20369;-76
2022/06/19 11:51:58;;;;;;;18.33;3.85;;;27.00;99.00;;;;;;5057835;28;20028;-77
2022/06/19 11:54:31;;;;;;;15.55;3.08;;;27.00;99.00;;;;;;5061641;28;20037;-77
2022/06/19 11:56:57;;;;;;;18.60;3.30;;;26.90;99.60;;;;;;5066199;28;20503;-77
2022/06/19 11:59:45;;;;;;;12.90;3.28;;;27.00;98.90;;;;;;5070073;28;20024;-77
2022/06/19 12:02:26;;;;;;;15.25;3.88;;;27.00;98.70;;;;;;5066986;28;20427;-77
2022/06/19 12:04:54;;;;;;;20.67;3.95;;;27.10;97.70;;;;;;5072300;28;20419;-77
2022/06/19 12:07:23;;;;;;;8.48;3.10;;;27.00;97.80;;;;;;5071802;28;20101;-77
2022/06/19 12:10:14;;;;;;;14.45;3.70;;;27.00;98.70;;;;;;5071865;28;20033;-77
2022/06/19 12:12:55;;;;;;;15.85;3.80;;;27.10;97.80;;;;;;5069714;28;20031;-77
2022/06/19 12:15:32;;;;;;;19.20;4.20;;;27.20;97.10;;;;;;5053112;28;20040;-77
2022/06/19 12:18:13;;;;;;;16.23;4.10;;;27.30;96.50;;;;;;5069186;28;20396;-78
2022/06/19 12:20:39;;;;;;;9.60;3.40;;;27.40;96.40;;;;;;5071695;28;20025;-78
2022/06/19 12:23:08;;;;;;;19.45;3.97;;;27.40;94.70;;;;;;5063077;28;20024;-78
2022/06/19 12:25:50;;;;;;;13.52;4.05;;;27.40;92.40;;;;;;5070735;28;20823;-78
2022/06/19 12:28:43;;;;;;;13.30;4.45;;;27.50;91.90;;;;;;5065474;28;20469;-80
2022/06/19 12:31:30;;;;;;;22.98;4.65;;;27.50;91.50;;;;;;5065036;28;20013;-78
2022/06/19 12:34:26;;;;;;;20.60;4.80;;;27.60;91.60;;;;;;5072320;28;20028;-78
2022/06/19 12:36:54;;;;;;;10.48;3.47;;;27.60;91.10;;;;;;5063969;28;20032;-78
2022/06/19 12:39:24;;;;;;;16.83;4.00;;;27.70;90.30;;;;;;5070873;28;20094;-78
2022/06/19 12:42:15;;;;;;;15.73;4.20;;;27.70;89.90;;;;;;5071862;28;20028;-78
2022/06/19 12:45:06;;;;;;;27.75;4.53;;;27.70;86.40;;;;;;5069929;28;20020;-78
2022/06/19 12:47:43;;;;;;;19.02;4.60;;;27.70;84.50;;;;;;5061498;28;20146;-78
2022/06/19 12:50:18;;;;;;;20.23;4.55;;;27.60;86.30;;;;;;5071650;28;20345;-79
2022/06/19 12:53:08;;;;;;;18.48;4.80;;;27.60;85.40;;;;;;5068435;28;20029;-78
2022/06/19 12:55:48;;;;;;;20.08;4.65;;;27.60;88.30;;;;;;5065997;28;20028;-79
2022/06/19 12:58:32;;;;;;;14.48;4.05;;;27.70;85.60;;;;;;5069937;28;20025;-78
2022/06/19 13:01:13;;;;;;;18.17;4.22;;;27.70;85.20;;;;;;5062122;28;20028;-78
2022/06/19 13:03:59;;;;;;;20.50;3.72;;;27.90;81.80;;;;;;5060525;28;20037;-80
2022/06/19 13:06:43;;;;;;;21.70;4.50;;;27.80;83.30;;;;;;5053941;28;20049;-78
2022/06/19 13:09:27;;;;;;;29.98;5.22;;;27.70;81.00;;;;;;5064685;28;20041;-78
2022/06/19 13:11:59;;;;;;;19.70;4.43;;;27.70;84.70;;;;;;5068391;28;20056;-78
2022/06/19 13:14:52;;;;;;;13.98;4.10;;;27.80;81.70;;;;;;5067739;28;20021;-78
2022/06/19 13:17:27;;;;;;;16.40;3.80;;;27.60;80.60;;;;;;5066694;28;20537;-84
2022/06/19 13:22:52;;;;;;;15.07;3.78;;;27.50;83.20;;;;;;5063550;28;20549;-84
2022/06/19 13:25:40;;;;;;;21.33;4.97;;;27.50;81.90;;;;;;5052575;28;20127;-84
2022/06/19 13:28:51;;;;;;;15.38;3.40;;;27.40;81.60;;;;;;5060232;28;20037;-84
2022/06/19 13:31:45;;;;;;;19.98;4.68;;;27.30;84.10;;;;;;5070141;28;20107;-84
2022/06/19 13:34:45;;;;;;;29.13;5.50;;;27.20;85.60;;;;;;5051550;28;20041;-85